createdAt,value
2023-01-09T00:01:59.981Z,100840.97
2023-01-09T00:04:26.754Z,100809.44
2023-01-09T00:06:56.442Z,100842.94
2023-01-09T00:09:24.095Z,100870.06
2023-01-09T00:11:51.108Z,100887.16
2023-01-09T00:14:17.895Z,100871.22
2023-01-09T00:16:44.830Z,100846.59
2023-01-09T00:19:11.697Z,100869.78
2023-01-09T00:21:38.521Z,100834.56
2023-01-09T00:24:05.664Z,100877.84
2023-01-09T00:26:32.810Z,100870.56
2023-01-09T00:28:59.837Z,100878.09
2023-01-09T00:31:26.706Z,100882.31
2023-01-09T00:33:59.991Z,100874.72
2023-01-09T00:36:27.038Z,100856.88
2023-01-09T00:38:53.889Z,100899.38
2023-01-09T00:41:26.072Z,100895.72
2023-01-09T00:43:55.067Z,100904.44
2023-01-09T00:46:22.850Z,100887.91
2023-01-09T00:48:49.858Z,100900.22
2023-01-09T00:51:17.621Z,100869.19
2023-01-09T00:53:44.656Z,100878.41
2023-01-09T00:56:13.790Z,100877.59
2023-01-09T00:58:40.831Z,100833.09
2023-01-09T01:01:07.812Z,100867.78
2023-01-09T01:03:34.729Z,100872.25
2023-01-09T01:06:20.137Z,100875.63
2023-01-09T01:08:46.959Z,100835.06
2023-01-09T01:11:13.786Z,100872.56
2023-01-09T01:13:41.345Z,100880.09
2023-01-09T01:16:10.692Z,100870.56
2023-01-09T01:18:37.729Z,100880.59
2023-01-09T01:21:12.170Z,100887.91
2023-01-09T01:23:39.121Z,100889.31
2023-01-09T01:26:15.216Z,100877.84
2023-01-09T01:28:42.455Z,100877.84
2023-01-09T01:31:09.248Z,100907.47
2023-01-09T01:33:36.313Z,100879.25
2023-01-09T01:36:07.938Z,100896.25
2023-01-09T01:38:35.170Z,100898.53
2023-01-09T01:41:03.065Z,100898.28
2023-01-09T01:43:51.985Z,100906.41
2023-01-09T01:46:18.960Z,100895.81
2023-01-09T01:48:46.541Z,100909.19
2023-01-09T01:51:14.437Z,100932.22
2023-01-09T01:53:47.260Z,100890.78
2023-01-09T01:56:21.041Z,100901.44
2023-01-09T01:58:52.586Z,100917.63
2023-01-09T02:01:19.461Z,100911.75
2023-01-09T02:03:46.364Z,100893.59
2023-01-09T02:06:13.267Z,100887.72
2023-01-09T02:08:40.142Z,100918.50
2023-01-09T02:11:06.992Z,100909.03
2023-01-09T02:13:34.668Z,100927.75
2023-01-09T02:16:29.128Z,100931.66
2023-01-09T02:19:14.945Z,100950.78
2023-01-09T02:22:03.720Z,100939.00
2023-01-09T02:24:48.729Z,100945.75
2023-01-09T02:27:52.996Z,100947.72
2023-01-09T02:30:34.302Z,100949.69
2023-01-09T02:33:13.022Z,100946.88
2023-01-09T02:36:16.598Z,100951.66
2023-01-09T02:38:58.289Z,100963.16
2023-01-09T02:41:27.909Z,100962.31
2023-01-09T02:44:26.617Z,100968.75
2023-01-09T02:47:05.732Z,100971.00
2023-01-09T02:49:37.448Z,100970.16
2023-01-09T02:52:10.411Z,100978.88
2023-01-09T02:54:44.836Z,100987.28
2023-01-09T02:57:32.878Z,100977.22
2023-01-09T03:00:09.162Z,100983.94
2023-01-09T03:02:48.748Z,100953.41
2023-01-09T03:05:28.809Z,100987.88
2023-01-09T03:07:57.039Z,100989.00
2023-01-09T03:10:32.171Z,100989.00
2023-01-09T03:12:59.154Z,100978.91
2023-01-09T03:15:27.224Z,100985.66
2023-01-09T03:17:53.941Z,101001.34
2023-01-09T03:20:22.906Z,100982.31
2023-01-09T03:22:56.739Z,101019.28
2023-01-09T03:25:24.298Z,101019.00
2023-01-09T03:27:54.185Z,100986.28
2023-01-09T03:30:21.360Z,101034.72
2023-01-09T03:32:48.203Z,101012.03
2023-01-09T03:35:14.958Z,101010.31
2023-01-09T03:37:41.778Z,101031.34
2023-01-09T03:40:09.450Z,101028.84
2023-01-09T03:42:36.288Z,101029.97
2023-01-09T03:45:03.681Z,101018.75
2023-01-09T03:47:30.655Z,101035.28
2023-01-09T03:49:57.528Z,101002.78
2023-01-09T03:52:24.328Z,101021.84
2023-01-09T03:54:51.162Z,101024.91
2023-01-09T03:57:17.888Z,101034.47
2023-01-09T03:59:44.700Z,101013.44
2023-01-09T04:02:11.675Z,101049.28
2023-01-09T04:04:38.584Z,101028.28
2023-01-09T04:07:05.362Z,101050.69
2023-01-09T04:09:32.265Z,101050.41
2023-01-09T04:11:59.086Z,101055.16
2023-01-09T04:14:25.915Z,101052.34
2023-01-09T04:16:52.855Z,101043.09
2023-01-09T04:19:19.696Z,101026.88
2023-01-09T04:21:46.614Z,101038.31
2023-01-09T04:24:13.511Z,101036.09
2023-01-09T04:26:40.278Z,101035.50
2023-01-09T04:29:07.001Z,101038.88
2023-01-09T04:31:33.992Z,101035.56
2023-01-09T04:34:00.826Z,101036.13
2023-01-09T04:36:27.606Z,101051.25
2023-01-09T04:38:54.481Z,101056.84
2023-01-09T04:41:41.457Z,101052.34
2023-01-09T04:44:08.313Z,101030.78
2023-01-09T04:46:35.032Z,101028.28
2023-01-09T04:49:01.958Z,101051.81
2023-01-09T04:51:28.890Z,101036.16
2023-01-09T04:53:55.619Z,101064.16
2023-01-09T04:56:22.334Z,101018.53
2023-01-09T04:58:49.214Z,101072.84
2023-01-09T05:01:16.029Z,101044.03
2023-01-09T05:03:42.843Z,101061.94
2023-01-09T05:06:10.104Z,101063.91
2023-01-09T05:08:36.825Z,101079.56
2023-01-09T05:11:03.709Z,101087.97
2023-01-09T05:13:30.679Z,101087.97
2023-01-09T05:15:57.444Z,101100.03
2023-01-09T05:18:24.186Z,101084.38
2023-01-09T05:20:51.149Z,101096.69
2023-01-09T05:23:17.950Z,101074.81
2023-01-09T05:25:44.705Z,101079.59
2023-01-09T05:28:11.535Z,101066.41
2023-01-09T05:30:38.403Z,101079.56
2023-01-09T05:33:05.146Z,101093.88
2023-01-09T05:35:31.986Z,101082.66
2023-01-09T05:37:58.870Z,101087.97
2023-01-09T05:40:29.245Z,101097.00
2023-01-09T05:42:59.063Z,101116.59
2023-01-09T05:45:27.292Z,101112.41
2023-01-09T05:47:54.136Z,101115.50
2023-01-09T05:50:21.024Z,101117.72
2023-01-09T05:52:47.870Z,101061.44
2023-01-09T05:55:14.705Z,101121.38
2023-01-09T05:57:41.589Z,101089.75
2023-01-09T06:00:08.958Z,101130.06
2023-01-09T06:02:35.890Z,101118.31
2023-01-09T06:05:02.928Z,101149.97
2023-01-09T06:07:29.653Z,101127.28
2023-01-09T06:09:56.401Z,101138.47
2023-01-09T06:12:23.369Z,101131.50
2023-01-09T06:14:50.082Z,101134.88
2023-01-09T06:17:16.886Z,101143.56
2023-01-09T06:19:43.694Z,101151.97
2023-01-09T06:22:10.474Z,101167.41
2023-01-09T06:24:37.228Z,101165.16
2023-01-09T06:27:04.171Z,101169.34
2023-01-09T06:29:30.987Z,101176.09
2023-01-09T06:31:57.715Z,101165.47
2023-01-09T06:34:24.616Z,101185.34
2023-01-09T06:36:51.358Z,101190.41
2023-01-09T06:39:18.195Z,101161.25
2023-01-09T06:41:47.107Z,101169.66
2023-01-09T06:44:15.341Z,101181.41
2023-01-09T06:46:42.149Z,101182.81
2023-01-09T06:49:09.980Z,101200.75
2023-01-09T06:51:36.829Z,101198.25
2023-01-09T06:54:03.695Z,101203.25
2023-01-09T06:56:30.556Z,101203.28
2023-01-09T06:58:57.285Z,101213.38
2023-01-09T07:01:24.157Z,101215.34
2023-01-09T07:03:51.192Z,101213.91
2023-01-09T07:06:18.765Z,101220.66
2023-01-09T07:08:47.774Z,101199.59
2023-01-09T07:11:14.901Z,101204.66
2023-01-09T07:13:42.131Z,101220.06
2023-01-09T07:16:08.920Z,101229.34
2023-01-09T07:18:35.872Z,101238.31
2023-01-09T07:21:02.594Z,101233.50
2023-01-09T07:23:29.411Z,101247.25
2023-01-09T07:25:56.343Z,101229.63
2023-01-09T07:28:23.432Z,101244.72
2023-01-09T07:30:50.262Z,101251.47
2023-01-09T07:33:17.218Z,101254.00
2023-01-09T07:35:43.990Z,101271.94
2023-01-09T07:38:10.730Z,101280.63
2023-01-09T07:40:37.833Z,101277.81
2023-01-09T07:43:04.560Z,101273.88
2023-01-09T07:45:31.297Z,101277.50
2023-01-09T07:47:58.280Z,101288.44
2023-01-09T07:50:24.989Z,101261.78
2023-01-09T07:52:51.713Z,101256.47
2023-01-09T07:55:18.575Z,101283.41
2023-01-09T07:57:49.138Z,101276.41
2023-01-09T08:00:16.159Z,101210.47
2023-01-09T08:02:43.018Z,101290.09
2023-01-09T08:05:13.773Z,101286.75
2023-01-09T08:07:41.386Z,101236.22
2023-01-09T08:10:08.898Z,101267.63
2023-01-09T08:12:35.648Z,101281.13
2023-01-09T08:15:02.542Z,101290.38
2023-01-09T08:17:29.340Z,101288.38
2023-01-09T08:19:56.047Z,101301.00
2023-01-09T08:22:22.878Z,101302.97
2023-01-09T08:24:49.805Z,101285.28
2023-01-09T08:27:16.715Z,101306.31
2023-01-09T08:29:43.539Z,101290.91
2023-01-09T08:32:10.529Z,101315.31
2023-01-09T08:34:37.284Z,101320.38
2023-01-09T08:37:04.224Z,101293.69
2023-01-09T08:39:31.162Z,101316.19
2023-01-09T08:42:16.437Z,101318.16
2023-01-09T08:45:01.900Z,101295.41
2023-01-09T08:47:33.402Z,101309.13
2023-01-09T08:50:01.381Z,101314.75
2023-01-09T08:52:30.748Z,101343.13
2023-01-09T08:54:57.813Z,101365.59
2023-01-09T08:57:24.954Z,101367.88
2023-01-09T08:59:51.824Z,101362.28
2023-01-09T09:02:18.736Z,101362.63
2023-01-09T09:04:46.583Z,101348.03
2023-01-09T09:07:13.401Z,101366.81
2023-01-09T09:09:40.158Z,101389.56
2023-01-09T09:12:08.257Z,101381.03
2023-01-09T09:14:53.587Z,101367.75
2023-01-09T09:17:20.418Z,101385.88
2023-01-09T09:19:47.262Z,101386.28
2023-01-09T09:22:14.076Z,101408.72
2023-01-09T09:24:40.941Z,101393.59
2023-01-09T09:27:08.066Z,101383.91
2023-01-09T09:29:35.113Z,101390.28
2023-01-09T09:32:01.992Z,101416.13
2023-01-09T09:34:28.797Z,101422.66
2023-01-09T09:36:55.636Z,101431.97
2023-01-09T09:39:22.660Z,101431.88
2023-01-09T09:42:14.086Z,101434.44
2023-01-09T09:45:38.669Z,101438.81
2023-01-09T09:48:06.547Z,101440.59
2023-01-09T09:51:10.267Z,101437.19
2023-01-09T09:53:50.065Z,101395.81
2023-01-09T09:56:18.530Z,101430.94
2023-01-09T09:58:46.801Z,101440.09
2023-01-09T10:01:16.198Z,101414.16
2023-01-09T10:03:46.699Z,101448.81
2023-01-09T10:06:25.358Z,101431.88
2023-01-09T10:09:04.363Z,101458.78
2023-01-09T10:12:00.071Z,101461.94
2023-01-09T10:14:26.962Z,101475.31
2023-01-09T10:17:04.211Z,101474.97
2023-01-09T10:20:02.168Z,101475.63
2023-01-09T10:22:50.934Z,101486.03
2023-01-09T10:25:40.858Z,101488.72
2023-01-09T10:28:46.630Z,101482.56
2023-01-09T10:31:29.026Z,101500.84
2023-01-09T10:34:23.337Z,101499.53
2023-01-09T10:37:02.007Z,101505.22
2023-01-09T10:39:45.697Z,101507.91
2023-01-09T10:42:31.088Z,101501.38
2023-01-09T10:45:15.355Z,101489.69
2023-01-09T10:47:43.371Z,101500.72
2023-01-09T10:50:22.399Z,101500.00
2023-01-09T10:52:51.016Z,101491.75
2023-01-09T10:55:21.498Z,101519.84
2023-01-09T10:57:51.143Z,101498.06
2023-01-09T11:00:23.671Z,101507.91
2023-01-09T11:02:51.747Z,101513.78
2023-01-09T11:05:27.996Z,101522.06
2023-01-09T11:08:13.052Z,101525.41
2023-01-09T11:10:48.271Z,101485.13
2023-01-09T11:13:36.816Z,101532.44
2023-01-09T11:16:22.211Z,101543.69
2023-01-09T11:18:53.602Z,101529.47
2023-01-09T11:21:32.827Z,101545.66
2023-01-09T11:24:21.624Z,101546.69
2023-01-09T11:26:50.336Z,101542.09
2023-01-09T11:29:21.812Z,101532.63
2023-01-09T11:31:56.382Z,101545.72
2023-01-09T11:34:24.993Z,101560.66
2023-01-09T11:36:52.763Z,101549.97
2023-01-09T11:39:23.905Z,101544.19
2023-01-09T11:42:02.520Z,101546.72
2023-01-09T11:44:29.385Z,101537.81
2023-01-09T11:46:56.232Z,101540.84
2023-01-09T11:49:25.303Z,101529.16
2023-01-09T11:52:20.543Z,101537.72
2023-01-09T11:54:59.484Z,101529.19
2023-01-09T11:57:26.329Z,101531.44
2023-01-09T11:59:54.534Z,101523.91
2023-01-09T12:02:34.952Z,101538.34
2023-01-09T12:05:17.601Z,101535.19
2023-01-09T12:08:12.214Z,101536.94
2023-01-09T12:10:52.930Z,101527.47
2023-01-09T12:13:25.756Z,101487.31
2023-01-09T12:15:58.407Z,101536.72
2023-01-09T12:18:46.932Z,101532.97
2023-01-09T12:21:38.192Z,101524.84
2023-01-09T12:24:31.007Z,101518.03
2023-01-09T12:27:17.555Z,101501.25
2023-01-09T12:30:02.820Z,101504.91
2023-01-09T12:33:01.247Z,101493.03
2023-01-09T12:35:36.418Z,101494.25
2023-01-09T12:38:18.309Z,101504.06
2023-01-09T12:41:01.173Z,101503.34
2023-01-09T12:43:27.819Z,101511.25
2023-01-09T12:46:16.730Z,101476.09
2023-01-09T12:48:58.730Z,101501.19
2023-01-09T12:51:44.112Z,101519.44
2023-01-09T12:54:10.812Z,101515.28
2023-01-09T12:56:41.164Z,101502.72
2023-01-09T12:59:42.450Z,101497.81
2023-01-09T13:02:09.249Z,101517.09
2023-01-09T13:04:40.324Z,101496.44
2023-01-09T13:07:16.417Z,101487.88
2023-01-09T13:09:57.141Z,101496.47
2023-01-09T13:12:24.279Z,101497.97
2023-01-09T13:14:56.662Z,101468.72
2023-01-09T13:17:52.285Z,101457.66
2023-01-09T13:20:39.395Z,101483.16
2023-01-09T13:23:06.373Z,101483.16
2023-01-09T13:25:37.139Z,101500.31
2023-01-09T13:28:08.235Z,101447.16
2023-01-09T13:30:47.206Z,101478.22
2023-01-09T13:33:24.136Z,101477.63
2023-01-09T13:35:55.409Z,101448.78
2023-01-09T13:38:26.259Z,101447.56
2023-01-09T13:41:29.439Z,101449.81
2023-01-09T13:44:01.547Z,101443.31
2023-01-09T13:46:43.420Z,101436.03
2023-01-09T13:49:41.825Z,101454.19
2023-01-09T13:52:31.346Z,101442.69
2023-01-09T13:55:01.112Z,101455.13
2023-01-09T13:57:38.492Z,101445.63
2023-01-09T14:00:17.135Z,101449.28
2023-01-09T14:02:47.153Z,101455.47
2023-01-09T14:05:37.584Z,101438.56
2023-01-09T14:08:07.158Z,101442.78
2023-01-09T14:10:48.983Z,101460.53
2023-01-09T14:13:23.545Z,101419.06
2023-01-09T14:15:50.983Z,101440.31
2023-01-09T14:18:39.232Z,101443.88
2023-01-09T14:23:53.735Z,101443.13
2023-01-09T14:26:25.098Z,101419.19
2023-01-09T14:28:51.882Z,101423.25
2023-01-09T14:31:32.482Z,101417.16
2023-01-09T14:34:31.082Z,101434.72
2023-01-09T14:36:59.847Z,101439.13
2023-01-09T14:39:26.987Z,101421.16
2023-01-09T14:42:05.924Z,101429.91
2023-01-09T14:45:08.470Z,101463.41
2023-01-09T14:47:39.561Z,101442.69
2023-01-09T14:50:31.153Z,101463.97
2023-01-09T14:53:10.418Z,101435.94
2023-01-09T14:55:53.020Z,101402.34
2023-01-09T14:58:22.819Z,101460.75
2023-01-09T15:01:15.037Z,101450.22
2023-01-09T15:03:51.773Z,101468.38
2023-01-09T15:06:23.406Z,101451.66
2023-01-09T15:08:56.872Z,101476.22
2023-01-09T15:11:23.695Z,101468.84
2023-01-09T15:13:50.665Z,101489.22
2023-01-09T15:16:22.316Z,101457.53
2023-01-09T15:18:56.893Z,101473.34
2023-01-09T15:21:30.987Z,101428.84
2023-01-09T15:24:14.014Z,101469.97
2023-01-09T15:26:41.121Z,101454.56
2023-01-09T15:29:17.875Z,101447.00
2023-01-09T15:31:45.776Z,101481.22
2023-01-09T15:34:21.506Z,101469.91
2023-01-09T15:36:49.634Z,101472.72
2023-01-09T15:39:39.987Z,101466.09
2023-01-09T15:42:50.443Z,101472.44
2023-01-09T15:45:23.015Z,101491.19
2023-01-09T15:47:49.988Z,101467.81
2023-01-09T15:50:17.681Z,101427.31
2023-01-09T15:52:44.770Z,101508.41
2023-01-09T15:55:42.435Z,101476.31
2023-01-09T15:58:31.327Z,101487.03
2023-01-09T16:01:07.297Z,101500.03
2023-01-09T16:03:36.628Z,101484.97
2023-01-09T16:06:27.830Z,101511.94
2023-01-09T16:08:56.302Z,101509.56
2023-01-09T16:11:30.453Z,101522.53
2023-01-09T16:13:59.023Z,101522.03
2023-01-09T16:16:31.471Z,101523.84
2023-01-09T16:18:58.434Z,101537.97
2023-01-09T16:21:30.253Z,101544.19
2023-01-09T16:23:58.595Z,101526.00
2023-01-09T16:26:27.325Z,101544.28
2023-01-09T16:28:54.175Z,101537.31
2023-01-09T16:31:30.253Z,101551.69
2023-01-09T16:34:04.498Z,101530.91
2023-01-09T16:36:31.448Z,101545.31
2023-01-09T16:39:00.980Z,101553.22
2023-01-09T16:41:46.255Z,101533.63
2023-01-09T16:44:13.054Z,101550.16
2023-01-09T16:46:43.924Z,101544.28
2023-01-09T16:49:24.288Z,101545.16
2023-01-09T16:51:51.520Z,101550.22
2023-01-09T16:54:18.401Z,101523.66
2023-01-09T16:56:48.625Z,101524.19
2023-01-09T16:59:20.788Z,101528.69
2023-01-09T17:01:48.256Z,101533.47
2023-01-09T17:04:15.613Z,101563.31
2023-01-09T17:06:42.482Z,101541.97
2023-01-09T17:09:13.452Z,101561.06
2023-01-09T17:11:40.277Z,101572.94
2023-01-09T17:14:07.433Z,101567.31
2023-01-09T17:16:36.070Z,101578.00
2023-01-09T17:19:03.157Z,101544.34
2023-01-09T17:21:30.929Z,101548.03
2023-01-09T17:24:19.225Z,101566.53
2023-01-09T17:27:06.268Z,101571.38
2023-01-09T17:29:33.536Z,101566.31
2023-01-09T17:32:00.483Z,101585.47
2023-01-09T17:34:27.439Z,101521.75
2023-01-09T17:36:55.832Z,101585.22
2023-01-09T17:39:23.729Z,101540.28
2023-01-09T17:41:50.702Z,101583.25
2023-01-09T17:44:17.535Z,101577.09
2023-01-09T17:46:45.142Z,101563.03
2023-01-09T17:49:21.386Z,101551.25
2023-01-09T17:51:48.315Z,101554.06
2023-01-09T17:54:15.277Z,101550.72
2023-01-09T17:56:43.839Z,101543.38
2023-01-09T17:59:14.112Z,101548.72
2023-01-09T18:01:41.749Z,101584.69
2023-01-09T18:04:08.825Z,101594.53
2023-01-09T18:06:36.709Z,101577.09
2023-01-09T18:09:04.545Z,101576.56
2023-01-09T18:11:31.513Z,101583.03
2023-01-09T18:13:58.342Z,101546.22
2023-01-09T18:16:26.803Z,101576.28
2023-01-09T18:18:54.644Z,101550.19
2023-01-09T18:21:23.133Z,101587.00
2023-01-09T18:23:50.243Z,101576.59
2023-01-09T18:26:21.237Z,101546.25
2023-01-09T18:29:06.331Z,101585.00
2023-01-09T18:31:33.513Z,101598.53
2023-01-09T18:34:03.942Z,101563.97
2023-01-09T18:36:31.389Z,101580.25
2023-01-09T18:38:59.484Z,101564.25
2023-01-09T18:41:26.871Z,101492.88
2023-01-09T18:44:00.877Z,101594.31
2023-01-09T18:46:32.125Z,101572.66
2023-01-09T18:49:00.676Z,101577.72
2023-01-09T18:51:27.882Z,101606.13
2023-01-09T18:53:55.351Z,101585.56
2023-01-09T18:56:22.265Z,101608.09
2023-01-09T18:58:49.108Z,101617.34
2023-01-09T19:01:16.071Z,101613.97
2023-01-09T19:03:42.958Z,101597.38
2023-01-09T19:06:10.053Z,101600.75
2023-01-09T19:08:36.985Z,101618.75
2023-01-09T19:11:03.870Z,101641.84
2023-01-09T19:13:35.653Z,101634.50
2023-01-09T19:16:02.857Z,101617.91
2023-01-09T19:18:31.434Z,101627.16
2023-01-09T19:20:58.223Z,101622.97
2023-01-09T19:23:25.073Z,101629.97
2023-01-09T19:25:52.501Z,101637.84
2023-01-09T19:28:20.006Z,101623.25
2023-01-09T19:30:47.025Z,101632.50
2023-01-09T19:33:13.751Z,101642.34
2023-01-09T19:35:40.572Z,101644.59
2023-01-09T19:38:07.504Z,101641.75
2023-01-09T19:40:35.600Z,101656.38
2023-01-09T19:43:02.416Z,101666.78
2023-01-09T19:45:29.533Z,101649.63
2023-01-09T19:47:56.528Z,101670.44
2023-01-09T19:50:23.265Z,101663.69
2023-01-09T19:52:51.081Z,101650.44
2023-01-09T19:55:17.913Z,101678.28
2023-01-09T19:57:45.314Z,101682.22
2023-01-09T20:00:13.299Z,101675.78
2023-01-09T20:02:40.972Z,101677.75
2023-01-09T20:05:08.173Z,101681.66
2023-01-09T20:07:35.231Z,101680.81
2023-01-09T20:10:02.104Z,101629.34
2023-01-09T20:12:28.816Z,101667.28
2023-01-09T20:14:55.724Z,101629.59
2023-01-09T20:17:22.553Z,101660.53
2023-01-09T20:19:49.278Z,101687.81
2023-01-09T20:22:16.085Z,101693.44
2023-01-09T20:24:43.127Z,101668.69
2023-01-09T20:27:10.369Z,101696.53
2023-01-09T20:29:37.214Z,101691.44
2023-01-09T20:32:06.290Z,101660.19
2023-01-09T20:34:33.109Z,101656.84
2023-01-09T20:36:59.948Z,101673.97
2023-01-09T20:39:26.715Z,101682.41
2023-01-09T20:41:53.586Z,101680.97
2023-01-09T20:44:20.732Z,101691.06
2023-01-09T20:46:48.220Z,101680.38
2023-01-09T20:49:16.305Z,101663.50
2023-01-09T20:51:46.140Z,101669.94
2023-01-09T20:54:13.883Z,101685.97
2023-01-09T20:56:40.736Z,101666.22
2023-01-09T20:59:14.655Z,101652.38
2023-01-09T21:01:41.784Z,101667.81
2023-01-09T21:04:09.060Z,101703.81
2023-01-09T21:06:36.239Z,101712.53
2023-01-09T21:09:04.222Z,101682.44
2023-01-09T21:11:31.171Z,101680.19
2023-01-09T21:13:58.212Z,101651.13
2023-01-09T21:16:25.865Z,101700.13
2023-01-09T21:18:52.705Z,101677.00
2023-01-09T21:21:21.939Z,101680.63
2023-01-09T21:23:52.227Z,101707.94
2023-01-09T21:26:22.544Z,101692.97
2023-01-09T21:28:50.522Z,101690.94
2023-01-09T21:31:20.444Z,101683.63
2023-01-09T21:33:47.692Z,101718.50
2023-01-09T21:36:14.497Z,101595.97
2023-01-09T21:38:41.325Z,101712.00
2023-01-09T21:41:26.464Z,101719.59
2023-01-09T21:44:11.862Z,101655.91
2023-01-09T21:46:55.863Z,101720.34
2023-01-09T21:49:25.813Z,101715.31
2023-01-09T21:51:53.263Z,101714.75
2023-01-09T21:54:20.185Z,101716.66
2023-01-09T21:56:47.270Z,101715.81
2023-01-09T21:59:13.981Z,101691.63
2023-01-09T22:01:40.700Z,101704.28
2023-01-09T22:04:07.587Z,101702.59
2023-01-09T22:06:35.240Z,101682.91
2023-01-09T22:09:02.025Z,101681.78
2023-01-09T22:11:29.305Z,101682.91
2023-01-09T22:13:57.683Z,101698.75
2023-01-09T22:16:26.896Z,101709.19
2023-01-09T22:18:54.948Z,101679.88
2023-01-09T22:21:22.387Z,101669.72
2023-01-09T22:23:49.153Z,101717.31
2023-01-09T22:26:16.497Z,101715.88
2023-01-09T22:28:43.888Z,101683.56
2023-01-09T22:31:18.118Z,101716.19
2023-01-09T22:33:49.452Z,101693.38
2023-01-09T22:36:16.274Z,101711.13
2023-01-09T22:38:43.073Z,101690.53
2023-01-09T22:41:09.793Z,101715.88
2023-01-09T22:43:36.642Z,101718.47
2023-01-09T22:46:04.587Z,101712.00
2023-01-09T22:48:37.209Z,101718.75
2023-01-09T22:51:10.620Z,101681.00
2023-01-09T22:53:37.345Z,101695.88
2023-01-09T22:56:05.803Z,101711.69
2023-01-09T22:58:32.855Z,101697.31
2023-01-09T23:00:59.684Z,101705.72
2023-01-09T23:03:26.746Z,101711.03
2023-01-09T23:06:07.861Z,101669.63
2023-01-09T23:08:35.027Z,101675.00
2023-01-09T23:11:02.288Z,101711.31
2023-01-09T23:13:29.200Z,101713.28
2023-01-09T23:15:55.977Z,101697.22
2023-01-09T23:18:22.837Z,101677.56
2023-01-09T23:20:57.519Z,101703.75
2023-01-09T23:23:24.632Z,101636.47
2023-01-09T23:25:52.091Z,101664.97
2023-01-09T23:28:19.235Z,101680.47
2023-01-09T23:30:46.006Z,101695.41
2023-01-09T23:33:12.855Z,101679.88
2023-01-09T23:35:39.808Z,101683.25
2023-01-09T23:38:07.482Z,101658.72
2023-01-09T23:40:37.758Z,101649.91
2023-01-09T23:43:10.522Z,101706.44
2023-01-09T23:45:46.722Z,101702.75
2023-01-09T23:48:15.008Z,101697.66
2023-01-09T23:50:51.566Z,101706.13
2023-01-09T23:53:19.346Z,101706.66
2023-01-09T23:55:46.211Z,101667.56
2023-01-09T23:58:12.933Z,101702.53
